Latest Weather Observations for Geelong Racecourse

IDV60901

Issued at 10:15 pm EST Tuesday 23 September 2014 (issued every 10 minutes, with the page automatically refreshed every 10 minutes)

About weather observations | Map of Melbourne area stations | Latest observations for Melbourne area | Other Formats
Station Details ID: 087184 Name: GEELONG RACECOURSE Lat: -38.17 Lon: 144.38 Height: 12.9 m
Data from the previous 72 hours. | See also: Recent months at Geelong Racecourse
Date/Time
EST
Tmp

°C
App
Tmp
°C
Dew
Point
°C
Rel
Hum
%
Delta-T

°C
Wind Press
QNH
hPa
Press
MSL
hPa
Rain
since
9 am
mm
Dir
 
Spd
km/h
Gust
km/h
Spd
kts
Gust
kts
23/10:00pm 17.2 15.6 8.6 57 4.4 NE 7 11 4 6 1020.5 1020.5 0.0
23/09:30pm 17.0 15.6 9.4 61 4.0 NE 7 11 4 6 1020.8 1020.8 0.0
23/09:00pm 17.0 15.7 10.1 64 3.6 ENE 7 9 4 5 1020.9 1020.9 0.0
23/08:30pm 17.3 16.3 10.2 63 3.8 NE 6 7 3 4 1021.0 1021.0 0.0
23/08:00pm 16.8 16.5 8.5 58 4.2 NE 0 6 0 3 1021.1 1021.1 0.0
23/07:30pm 18.6 17.5 8.3 51 5.3 NE 4 4 2 2 1020.8 1020.8 0.0
23/07:00pm 17.9 17.5 8.2 53 4.9 CALM 0 0 0 0 1020.8 1020.8 0.0
23/06:30pm 19.6 18.9 8.6 49 5.7 S 2 6 1 3 1020.8 1020.8 0.0
23/06:00pm 21.9 20.0 6.6 37 7.8 E 6 9 3 5 1020.8 1020.8 0.0
23/05:30pm 23.3 21.3 6.1 33 8.8 E 6 9 3 5 1020.8 1020.8 0.0
23/05:00pm 24.1 22.1 6.4 32 9.1 NE 6 9 3 5 1020.8 1020.8 0.0
23/04:30pm 24.5 22.4 6.7 32 9.2 NNE 7 13 4 7 1020.9 1020.9 0.0
23/04:00pm 24.7 22.5 5.5 29 9.7 NNE 6 11 3 6 1021.2 1021.2 0.0
23/03:30pm 25.1 22.5 6.3 30 9.7 NNE 9 15 5 8 1021.3 1021.3 0.0
23/03:00pm 25.1 22.7 5.3 28 10.0 NE 7 13 4 7 1021.7 1021.7 0.0
23/02:30pm 25.2 22.7 6.4 30 9.7 NNE 9 17 5 9 1022.1 1022.1 0.0
23/02:00pm 26.2 22.5 4.6 25 10.9 WNW 13 22 7 12 1022.3 1022.3 0.0
23/01:30pm 26.1 22.1 5.1 26 10.7 NW 15 24 8 13 1022.6 1022.6 0.0
23/01:00pm 25.9 23.7 6.0 28 10.2 NNE 7 13 4 7 1022.9 1022.9 0.0
23/12:30pm 25.7 23.1 4.2 25 10.7 NE 7 17 4 9 1023.3 1023.3 0.0
23/12:00pm 25.3 22.9 7.0 31 9.5 ENE 9 17 5 9 1023.8 1023.8 0.0
23/11:30am 23.9 22.0 7.5 35 8.6 NNE 7 13 4 7 1024.5 1024.5 0.0
23/11:00am 22.5 20.4 8.2 40 7.5 NNE 9 15 5 8 1025.0 1025.0 0.0
23/10:30am 20.4 18.6 9.3 49 5.9 NNE 9 13 5 7 1025.4 1025.4 0.0
23/10:00am 18.5 16.7 9.3 55 4.8 NNE 9 13 5 7 1025.8 1025.8 0.0
23/09:30am 17.0 14.9 8.2 56 4.5 NNE 9 13 5 7 1026.0 1026.0 0.0
23/09:00am 15.8 14.0 9.5 66 3.2 NE 9 13 5 7 1026.2 1026.2 0.0
23/08:30am 14.2 12.3 9.0 71 2.6 NE 9 13 5 7 1026.4 1026.4 0.0
23/08:00am 12.9 12.4 12.0 94 0.5 NNE 6 7 3 4 1026.5 1026.5 0.0
23/07:30am 8.8 7.9 7.9 94 0.4 WNW 2 2 1 1 1026.5 1026.5 0.0
23/07:00am 6.0 4.5 5.1 94 0.4 WNW 2 4 1 2 1026.3 1026.3 0.0
23/06:30am 4.8 2.7 3.9 94 0.4 WNW 4 6 2 3 1026.2 1026.2 0.0
23/06:00am 5.1 3.1 4.2 94 0.4 NNW 4 4 2 2 1026.0 1026.0 0.0
23/05:30am 5.3 4.1 4.4 94 0.4 CALM 0 0 0 0 1025.8 1025.8 0.0
23/05:00am 6.0 4.9 5.0 93 0.4 CALM 0 0 0 0 1025.7 1025.7 0.0
23/04:30am 6.4 5.4 5.4 93 0.4 CALM 0 2 0 1 1025.5 1025.5 0.0
23/04:00am 7.1 5.8 6.0 93 0.5 NNW 2 4 1 2 1025.2 1025.2 0.0
23/03:30am 7.5 5.9 6.4 93 0.5 N 4 7 2 4 1025.0 1025.0 0.0
23/03:00am 8.3 6.6 7.4 94 0.4 NNE 6 9 3 5 1025.1 1025.1 0.0
23/02:30am 7.3 5.3 6.2 93 0.5 N 6 6 3 3 1025.4 1025.4 0.0
23/02:00am 7.5 5.9 6.4 93 0.5 NNW 4 4 2 2 1025.5 1025.5 0.0
23/01:30am 8.1 6.6 7.0 93 0.5 NNW 4 4 2 2 1025.9 1025.9 0.0
23/01:00am 7.8 6.3 6.7 93 0.5 NNW 4 6 2 3 1026.1 1026.1 0.0
23/12:30am 9.0 8.5 7.9 93 0.5 CALM 0 2 0 1 1026.4 1026.4 0.0
23/12:00am 9.3 8.9 8.2 93 0.5 W 0 0 0 0 1026.5 1026.5 0.0
 
Date/Time
EST
Tmp

°C
App
Tmp
°C
Dew
Point
°C
Rel
Hum
%
Delta-T

°C
Wind Press
QNH
hPa
Press
MSL
hPa
Rain
since
9 am
mm
Dir
 
Spd
km/h
Gust
km/h
Spd
kts
Gust
kts
22/11:30pm 9.6 9.3 8.5 93 0.5 CALM 0 0 0 0 1026.6 1026.6 0.0
22/11:00pm 10.4 10.3 9.3 93 0.5 CALM 0 0 0 0 1026.9 1026.9 0.0
22/10:30pm 10.5 10.0 9.4 93 0.5 SW 2 4 1 2 1027.0 1027.0 0.0
22/10:00pm 11.2 10.5 10.0 92 0.6 WSW 4 6 2 3 1027.3 1027.3 0.0
22/09:30pm 10.9 10.1 9.7 92 0.6 WSW 4 6 2 3 1027.3 1027.3 0.0
22/09:00pm 11.6 10.6 10.3 92 0.7 SW 6 7 3 4 1027.2 1027.2 0.0
22/08:30pm 11.5 10.5 10.2 92 0.7 SW 6 7 3 4 1027.2 1027.2 0.0
22/08:00pm 12.2 11.2 10.4 89 0.9 S 6 9 3 5 1026.9 1026.9 0.0
22/07:30pm 13.3 11.6 8.4 72 2.4 S 7 9 4 5 1026.6 1026.6 0.0
22/07:00pm 14.6 12.7 7.6 63 3.4 S 7 9 4 5 1026.2 1026.2 0.0
22/06:30pm 16.9 14.9 6.1 49 5.3 SE 6 9 3 5 1025.9 1025.9 0.0
22/06:00pm 18.1 15.6 6.6 47 5.7 SSE 9 13 5 7 1025.9 1025.9 0.0
22/05:30pm 19.4 17.0 7.2 45 6.2 SE 9 15 5 8 1025.8 1025.8 0.0
22/05:00pm 20.4 17.8 7.7 44 6.5 ESE 11 15 6 8 1025.5 1025.5 0.0
22/04:30pm 20.8 18.3 8.1 44 6.6 ESE 11 17 6 9 1025.4 1025.4 0.0
22/04:00pm 21.3 18.6 8.9 45 6.5 SE 13 20 7 11 1025.4 1025.4 0.0
22/03:30pm 22.0 20.2 7.8 40 7.4 SSE 7 11 4 6 1025.4 1025.4 0.0
22/03:00pm 21.7 20.1 7.9 41 7.2 SE 6 11 3 6 1025.5 1025.5 0.0
22/02:30pm 22.1 20.5 7.9 40 7.4 NE 6 13 3 7 1025.9 1025.9 0.0
22/02:00pm 21.8 20.4 8.7 43 6.9 NNE 6 11 3 6 1026.1 1026.1 0.0
22/01:30pm 20.4 18.7 7.4 43 6.7 N 6 11 3 6 1026.6 1026.6 0.0
22/01:00pm 20.3 18.8 8.6 47 6.1 NE 6 13 3 7 1027.0 1027.0 0.0
22/12:30pm 19.3 17.6 8.3 49 5.7 NE 7 11 4 6 1027.4 1027.4 0.0
22/12:00pm 18.1 16.6 10.5 61 4.0 NE 9 13 5 7 1028.0 1028.0 0.0
22/11:30am 17.3 15.6 10.0 62 3.9 NE 9 13 5 7 1028.4 1028.4 0.0
22/11:00am 15.6 13.8 9.3 66 3.2 NE 9 13 5 7 1028.7 1028.7 0.0
22/10:30am 14.9 12.7 9.5 70 2.8 NNE 11 15 6 8 1029.0 1029.0 0.0
22/10:00am 14.1 12.1 8.7 70 2.7 NNE 9 13 5 7 1029.3 1029.3 0.0
22/09:30am 13.3 11.3 8.6 73 2.4 NNE 9 15 5 8 1029.6 1029.6 0.0
22/09:00am 12.4 10.4 8.7 78 1.8 NNE 9 13 5 7 1029.6 1029.6 0.0
22/08:30am 11.3 10.0 9.9 91 0.7 NNE 7 13 4 7 1029.9 1029.9 0.0
22/08:00am 9.4 8.3 8.5 94 0.4 N 4 6 2 3 1029.7 1029.7 0.0
22/07:30am 6.3 4.9 5.4 94 0.4 W 2 2 1 1 1029.4 1029.4 0.0
22/07:00am 3.8 1.5 2.9 94 0.4 W 4 4 2 2 1029.4 1029.4 0.0
22/06:30am 2.9 0.5 2.0 94 0.4 W 4 6 2 3 1029.2 1029.2 0.0
22/06:00am 2.9 0.5 2.0 94 0.3 W 4 4 2 2 1029.1 1029.1 0.0
22/05:30am 3.1 0.7 2.2 94 0.4 W 4 6 2 3 1028.9 1028.9 0.0
22/05:00am 3.4 1.1 2.5 94 0.4 W 4 4 2 2 1028.6 1028.6 0.0
22/04:30am 2.8 0.7 1.9 94 0.4 W 2 4 1 2 1028.5 1028.5 0.0
22/04:00am 3.6 2.0 2.7 94 0.4 CALM 0 0 0 0 1028.5 1028.5 0.0
22/03:30am 3.8 2.3 2.9 94 0.4 CALM 0 0 0 0 1028.8 1028.8 0.0
22/03:00am 3.7 2.1 2.7 93 0.4 CALM 0 0 0 0 1028.8 1028.8 0.0
22/02:30am 4.3 2.9 3.3 93 0.4 CALM 0 0 0 0 1029.1 1029.1 0.0
22/02:00am 4.6 3.2 3.6 93 0.4 CALM 0 0 0 0 1029.4 1029.4 0.0
22/01:30am 5.2 3.5 4.2 93 0.4 W 2 2 1 1 1029.6 1029.6 0.0
22/01:00am 5.1 3.4 4.1 93 0.4 W 2 2 1 1 1029.8 1029.8 0.0
22/12:30am 5.6 4.0 4.6 93 0.4 W 2 4 1 2 1029.8 1029.8 0.0
22/12:00am 6.1 4.2 5.1 93 0.4 W 4 4 2 2 1029.8 1029.8 0.0
 
Date/Time
EST
Tmp

°C
App
Tmp
°C
Dew
Point
°C
Rel
Hum
%
Delta-T

°C
Wind Press
QNH
hPa
Press
MSL
hPa
Rain
since
9 am
mm
Dir
 
Spd
km/h
Gust
km/h
Spd
kts
Gust
kts
21/11:30pm 6.0 4.5 5.0 93 0.4 W 2 4 1 2 1029.8 1029.8 0.0
21/11:00pm 6.5 5.4 5.3 92 0.5 CALM 0 0 0 0 1030.2 1030.2 0.0
21/10:30pm 7.0 6.0 5.8 92 0.5 CALM 0 0 0 0 1030.2 1030.2 0.0
21/10:00pm 7.5 6.7 6.3 92 0.5 CALM 0 0 0 0 1030.5 1030.5 0.0
21/09:30pm 7.9 7.1 6.7 92 0.6 CALM 0 0 0 0 1030.6 1030.6 0.0
21/09:00pm 8.2 7.5 6.8 91 0.6 CALM 0 2 0 1 1030.7 1030.7 0.0
21/08:30pm 7.6 5.9 5.7 88 0.9 S 4 4 2 2 1030.9 1030.9 0.0
21/08:00pm 8.4 6.3 5.7 83 1.2 S 6 7 3 4 1030.9 1030.9 0.0
21/07:30pm 9.9 7.9 6.3 78 1.7 S 6 7 3 4 1030.7 1030.7 0.0
21/07:00pm 10.4 8.1 5.6 72 2.2 S 7 9 4 5 1030.6 1030.6 0.0
21/06:30pm 11.3 8.6 5.6 68 2.6 S 9 13 5 7 1030.3 1030.3 0.0
21/06:00pm 12.2 9.1 5.6 64 3.0 SSE 11 15 6 8 1030.2 1030.2 0.0
21/05:30pm 12.9 9.1 5.8 62 3.3 SSE 15 19 8 10 1030.0 1030.0 0.0
21/05:00pm 13.7 10.3 6.1 60 3.6 S 13 19 7 10 1029.9 1029.9 0.0
21/04:30pm 14.4 11.2 6.7 60 3.7 SSE 13 19 7 10 1029.8 1029.8 0.0
21/04:00pm 14.9 12.0 6.7 58 4.0 S 11 15 6 8 1029.9 1029.9 0.0
21/03:30pm 15.3 12.5 7.1 58 4.0 SSE 11 17 6 9 1029.9 1029.9 0.0
21/03:00pm 15.8 13.0 7.1 56 4.3 SE 11 17 6 9 1030.0 1030.0 0.0
21/02:30pm 16.0 13.8 6.4 53 4.7 SSE 7 15 4 8 1030.1 1030.1 0.0
21/02:00pm 16.2 13.9 7.4 56 4.3 ESE 9 15 5 8 1030.5 1030.5 0.0
21/01:30pm 15.8 13.2 6.0 52 4.7 ESE 9 19 5 10 1030.7 1030.7 0.0
21/01:00pm 15.6 13.1 6.6 55 4.4 S 9 17 5 9 1031.1 1031.1 0.0
21/12:30pm 15.6 13.0 6.3 54 4.5 SSE 9 22 5 12 1031.7 1031.7 0.0
21/12:00pm 14.9 11.9 6.0 55 4.2 SSW 11 17 6 9 1031.8 1031.8 0.0
21/11:30am 14.6 11.6 6.2 57 4.0 S 11 20 6 11 1032.1 1032.2 0.0
21/11:00am 15.1 12.5 5.9 54 4.4 SSE 9 24 5 13 1032.4 1032.5 0.0
21/10:30am 14.0 10.9 5.4 56 4.0 SSE 11 17 6 9 1032.5 1032.6 0.0
21/10:00am 13.8 9.9 5.4 57 3.9 S 15 19 8 10 1032.4 1032.5 0.0
21/09:30am 14.9 11.9 6.0 55 4.3 ESE 11 19 6 10 1032.2 1032.3 0.0
21/09:00am 14.4 12.5 6.7 60 3.7 SE 6 9 3 5 1031.9 1032.0 0.0
21/08:30am 13.0 11.0 6.4 64 3.1 SE 6 9 3 5 1031.7 1031.7 0.0
21/08:00am 12.2 11.2 7.3 72 2.3 SW 2 6 1 3 1031.5 1031.5 0.0
21/07:30am 10.5 10.1 8.4 87 1.0 CALM 0 2 0 1 1031.3 1031.3 0.0
21/07:00am 9.3 8.6 7.1 86 1.0 CALM 0 4 0 2 1031.2 1031.2 0.0
21/06:30am 8.3 6.9 5.6 83 1.2 S 2 6 1 3 1031.0 1031.0 0.0
21/06:00am 9.2 7.8 5.6 78 1.6 S 2 4 1 2 1030.5 1030.5 0.0
21/05:30am 9.9 8.6 6.1 77 1.8 WSW 2 4 1 2 1030.2 1030.2 0.0
21/05:00am 9.8 8.2 6.5 80 1.5 S 4 6 2 3 1030.2 1030.2 0.0
21/04:30am 9.2 8.4 8.1 93 0.5 SSW 2 7 1 4 1030.2 1030.2 0.0
21/04:00am 9.2 8.8 8.1 93 0.5 CALM 0 0 0 0 1030.0 1030.0 0.0
21/03:30am 8.7 7.4 7.8 94 0.4 W 4 6 2 3 1029.9 1029.9 0.0
21/03:00am 8.5 7.9 7.6 94 0.4 CALM 0 0 0 0 1029.8 1029.8 0.0
21/02:30am 8.2 6.8 7.3 94 0.4 W 4 6 2 3 1030.1 1030.1 0.0
21/02:00am 7.6 6.1 6.7 94 0.4 W 4 4 2 2 1030.5 1030.5 0.0
21/01:30am 7.0 5.3 6.1 94 0.4 W 4 4 2 2 1030.4 1030.4 0.0
21/01:00am 7.0 5.3 6.1 94 0.4 NW 4 6 2 3 1030.5 1030.5 0.0
21/12:30am 7.0 5.7 6.1 94 0.4 WSW 2 4 1 2 1030.5 1030.5 0.0
21/12:00am 7.1 6.2 6.0 93 0.5 CALM 0 0 0 0 1030.6 1030.6 0.0
 
Date/Time
EST
Tmp

°C
App
Tmp
°C
Dew
Point
°C
Rel
Hum
%
Delta-T

°C
Wind Press
QNH
hPa
Press
MSL
hPa
Rain
since
9 am
mm
Dir
 
Spd
km/h
Gust
km/h
Spd
kts
Gust
kts
20/11:30pm 7.7 6.9 6.6 93 0.5 CALM 0 0 0 0 1030.5 1030.5 0.0
20/11:00pm 7.8 7.0 6.7 93 0.5 CALM 0 0 0 0 1030.5 1030.5 0.0
20/10:30pm 8.6 8.0 7.5 93 0.5 CALM 0 0 0 0 1030.3 1030.3 0.0

Latest Capital City Observations: Canberra | Sydney | Melbourne | Brisbane | Adelaide | Perth | Hobart | Darwin

Other Formats:

Comma delimited format used in spreadsheet applications
http://www.bom.gov.au/fwo/IDV60901/IDV60901.94857.axf

JavaScript Object Notation format (JSON) in row-major order
http://www.bom.gov.au/fwo/IDV60901/IDV60901.94857.json